Time;durP1;ratioP1;P1;durP2;ratioP2;P2;SDS_P1;SDS_P2;PMS_P1;PMS_P2;Temp;Humidity;BMP_temperature;BMP_pressure;BME280_temperature;BME280_humidity;BME280_pressure;Samples;Min_cycle;Max_cycle;Signal;HPM_P1;HPM_P2
2021/05/08 00:02:17;;;;;;;2.33;1.72;;;;;;;13.53;83.21;99543.99;1670073;84;21513;-43
2021/05/08 00:04:45;;;;;;;2.65;1.17;;;;;;;13.52;83.17;99542.28;1666456;84;21187;-43
2021/05/08 00:07:16;;;;;;;2.75;1.90;;;;;;;13.50;83.12;99534.02;1666973;82;21162;-40
2021/05/08 00:09:44;;;;;;;2.20;1.70;;;;;;;13.49;83.13;99526.48;1702305;83;21955;-44
2021/05/08 00:12:12;;;;;;;2.62;1.70;;;;;;;13.49;83.12;99524.30;1758767;81;21515;-43
2021/05/08 00:14:39;;;;;;;3.47;1.80;;;;;;;13.49;83.13;99517.59;1763867;80;21559;-41
2021/05/08 00:17:09;;;;;;;4.00;1.50;;;;;;;13.47;83.10;99512.86;1759927;80;21103;-41
2021/05/08 00:19:37;;;;;;;2.40;1.60;;;;;;;13.42;83.08;99513.25;1760974;80;21903;-42
2021/05/08 00:22:04;;;;;;;3.62;1.90;;;;;;;13.39;83.09;99520.21;1751282;80;21157;-45
2021/05/08 00:24:32;;;;;;;2.17;1.70;;;;;;;13.35;83.15;99511.57;1756444;80;21137;-45
2021/05/08 00:27:00;;;;;;;1.98;1.55;;;;;;;13.31;83.25;99518.69;1761469;80;21138;-44
2021/05/08 00:29:28;;;;;;;3.62;1.62;;;;;;;13.29;83.34;99528.66;1722613;82;21150;-44
2021/05/08 00:31:56;;;;;;;4.00;1.65;;;;;;;13.28;83.46;99533.64;1724287;82;21162;-44
2021/05/08 00:34:24;;;;;;;2.98;1.60;;;;;;;13.28;83.60;99543.02;1699216;83;21150;-45
2021/05/08 00:36:52;;;;;;;3.85;1.50;;;;;;;13.28;83.74;99533.18;1752207;80;21146;-44
2021/05/08 00:39:20;;;;;;;2.58;2.22;;;;;;;13.30;83.82;99528.52;1760324;80;21629;-45
2021/05/08 00:41:48;;;;;;;3.08;1.75;;;;;;;13.33;83.88;99527.41;1761359;80;21597;-44
2021/05/08 00:44:15;;;;;;;2.72;1.65;;;;;;;13.35;83.87;99534.33;1758544;80;21173;-45
2021/05/08 00:46:44;;;;;;;3.45;1.85;;;;;;;13.35;83.83;99537.01;1760479;80;21126;-43
2021/05/08 00:49:12;;;;;;;3.80;1.90;;;;;;;13.37;83.79;99539.56;1739580;81;21103;-43
2021/05/08 00:51:40;;;;;;;3.67;1.80;;;;;;;13.36;83.75;99524.00;1758229;80;21486;-43
2021/05/08 00:54:08;;;;;;;1.90;1.40;;;;;;;13.39;83.75;99532.27;1740621;81;21157;-43
2021/05/08 00:56:35;;;;;;;2.45;1.62;;;;;;;13.37;83.67;99547.11;1758360;80;21138;-43
2021/05/08 00:59:03;;;;;;;4.20;2.22;;;;;;;13.34;83.65;99544.70;1758841;80;21122;-44
2021/05/08 01:01:31;;;;;;;2.80;2.02;;;;;;;13.36;83.65;99541.90;1751972;80;21417;-43
2021/05/08 01:03:59;;;;;;;3.98;2.17;;;;;;;13.34;83.60;99531.80;1740981;80;21173;-44
2021/05/08 01:06:27;;;;;;;4.83;2.20;;;;;;;13.34;83.57;99531.80;1738033;81;21141;-44
2021/05/08 01:08:55;;;;;;;5.35;2.62;;;;;;;13.33;83.54;99529.63;1772536;79;21146;-43
2021/05/08 01:11:24;;;;;;;2.95;1.87;;;;;;;13.31;83.53;99536.09;1797227;79;21127;-42
2021/05/08 01:13:52;;;;;;;4.40;2.42;;;;;;;13.29;83.60;99535.36;1768917;78;21894;-44
2021/05/08 01:16:20;;;;;;;2.65;1.77;;;;;;;13.28;83.61;99520.25;1793628;78;21137;-43
2021/05/08 01:18:52;;;;;;;2.37;1.75;;;;;;;13.26;83.65;99516.85;1774465;78;21168;-43
2021/05/08 01:21:20;;;;;;;3.10;2.35;;;;;;;13.19;83.68;99520.53;1794852;79;21118;-43
2021/05/08 01:23:50;;;;;;;3.85;2.60;;;;;;;13.16;83.85;99521.63;1796911;79;21149;-43
2021/05/08 01:26:19;;;;;;;3.72;2.37;;;;;;;13.18;83.98;99522.86;1796685;78;21110;-44
2021/05/08 01:28:48;;;;;;;3.20;1.95;;;;;;;13.19;84.05;99524.05;1790835;78;21137;-45
2021/05/08 01:31:16;;;;;;;3.25;2.33;;;;;;;13.21;84.11;99519.91;1795550;78;21190;-42
2021/05/08 01:33:43;;;;;;;2.45;1.72;;;;;;;13.18;84.10;99519.69;1798188;78;21145;-42
2021/05/08 01:36:12;;;;;;;3.45;2.42;;;;;;;13.15;84.20;99527.98;1774996;79;21150;-43
2021/05/08 01:38:39;;;;;;;3.17;2.33;;;;;;;13.18;84.37;99542.94;1797984;78;21118;-43
2021/05/08 01:41:08;;;;;;;3.50;2.77;;;;;;;13.20;84.44;99545.84;1794232;78;21574;-43
2021/05/08 01:43:36;;;;;;;4.33;2.45;;;;;;;13.23;84.46;99552.77;1792205;78;21134;-42
2021/05/08 01:46:04;;;;;;;7.65;2.85;;;;;;;13.27;84.50;99545.34;1770639;79;21538;-43
2021/05/08 01:48:33;;;;;;;4.42;2.55;;;;;;;13.28;84.47;99545.69;1792722;78;21134;-44
2021/05/08 01:51:02;;;;;;;2.58;2.10;;;;;;;13.28;84.46;99541.21;1794200;79;21097;-43
2021/05/08 01:53:31;;;;;;;3.05;2.75;;;;;;;13.30;84.39;99534.37;1777620;78;21568;-42
2021/05/08 01:55:59;;;;;;;7.08;2.70;;;;;;;13.32;84.46;99531.92;1733374;81;21158;-43
2021/05/08 01:58:29;;;;;;;3.30;2.10;;;;;;;13.33;84.38;99536.78;1728928;82;21134;-43
2021/05/08 02:00:59;;;;;;;2.77;2.45;;;;;;;13.31;84.35;99538.77;1726827;82;21141;-42
2021/05/08 02:03:28;;;;;;;4.08;2.77;;;;;;;13.32;84.38;99541.30;1763648;80;21694;-43
2021/05/08 02:05:57;;;;;;;4.85;3.02;;;;;;;13.33;84.33;99532.77;1796395;79;21106;-44
2021/05/08 02:09:08;;;;;;;4.95;2.92;;;;;;;13.38;84.22;99521.17;1808265;77;23297;-44
2021/05/08 02:11:38;;;;;;;3.55;3.02;;;;;;;13.31;84.12;99532.06;1733150;81;21173;-44
2021/05/08 02:14:06;;;;;;;3.80;3.30;;;;;;;13.30;84.07;99535.70;1711963;82;21187;-43
2021/05/08 02:16:34;;;;;;;4.58;3.17;;;;;;;13.27;84.01;99535.97;1721782;81;21181;-43
2021/05/08 02:19:03;;;;;;;3.80;3.17;;;;;;;13.25;84.02;99532.05;1746055;81;21185;-41
2021/05/08 02:21:34;;;;;;;4.08;3.60;;;;;;;13.23;84.04;99526.00;1680120;84;21179;-44
2021/05/08 02:24:05;;;;;;;3.52;2.95;;;;;;;13.24;84.07;99527.68;1729366;81;21185;-46
2021/05/08 02:26:34;;;;;;;5.22;3.80;;;;;;;13.24;84.08;99517.47;1719077;81;21164;-43
2021/05/08 02:29:02;;;;;;;4.95;3.58;;;;;;;13.26;84.06;99514.17;1728758;81;21211;-42
2021/05/08 02:31:31;;;;;;;5.62;3.70;;;;;;;13.24;84.06;99506.27;1722229;82;21177;-43
2021/05/08 02:34:00;;;;;;;4.75;3.70;;;;;;;13.23;84.04;99504.58;1729736;81;21905;-43
2021/05/08 02:36:29;;;;;;;4.95;4.45;;;;;;;13.22;83.99;99506.88;1739935;81;21164;-42
2021/05/08 02:38:57;;;;;;;4.28;3.30;;;;;;;13.18;83.95;99506.30;1690351;84;21174;-42
2021/05/08 02:41:25;;;;;;;3.77;3.37;;;;;;;13.11;83.96;99509.13;1671760;84;21197;-43
2021/05/08 02:43:53;;;;;;;5.67;4.42;;;;;;;13.07;84.06;99513.03;1714659;82;21597;-42
2021/05/08 02:46:20;;;;;;;5.37;3.40;;;;;;;13.04;84.13;99505.77;1694074;84;21659;-42
2021/05/08 02:48:49;;;;;;;4.00;3.60;;;;;;;13.01;84.16;99501.52;1695206;83;21430;-43
2021/05/08 02:51:17;;;;;;;5.25;3.60;;;;;;;12.94;84.17;99521.23;1691176;83;21193;-42
2021/05/08 02:53:44;;;;;;;4.50;3.15;;;;;;;12.89;84.35;99521.27;1727861;81;21154;-44
2021/05/08 02:56:12;;;;;;;4.42;3.30;;;;;;;12.90;84.47;99517.60;1725527;81;21173;-44
2021/05/08 02:58:42;;;;;;;4.37;3.30;;;;;;;12.90;84.47;99509.11;1725099;81;21169;-42
2021/05/08 03:01:10;;;;;;;4.10;3.37;;;;;;;12.88;84.46;99503.53;1726995;81;21133;-41
2021/05/08 03:03:38;;;;;;;4.58;2.80;;;;;;;12.87;84.47;99513.36;1739724;81;21387;-42
2021/05/08 03:06:06;;;;;;;4.03;3.22;;;;;;;12.88;84.51;99519.58;1740881;81;21161;-44
2021/05/08 03:08:36;;;;;;;5.28;3.52;;;;;;;12.91;84.61;99522.00;1741998;81;21597;-45
2021/05/08 03:11:05;;;;;;;4.92;3.42;;;;;;;12.94;84.65;99527.92;1733432;81;21202;-41
2021/05/08 03:13:33;;;;;;;4.80;2.60;;;;;;;12.97;84.64;99530.84;1685818;83;21150;-44
2021/05/08 03:16:01;;;;;;;3.80;3.40;;;;;;;13.01;84.55;99527.44;1704618;82;21154;-44
2021/05/08 03:18:29;;;;;;;3.75;3.10;;;;;;;13.04;84.50;99533.86;1690832;83;21240;-45
2021/05/08 03:20:57;;;;;;;4.10;3.67;;;;;;;13.06;84.41;99539.94;1695192;83;21293;-44
2021/05/08 03:23:25;;;;;;;4.45;3.35;;;;;;;13.07;84.33;99537.12;1734614;81;21177;-43
2021/05/08 03:25:53;;;;;;;3.80;3.20;;;;;;;13.08;84.24;99533.48;1725613;81;21174;-43
2021/05/08 03:28:20;;;;;;;4.30;3.10;;;;;;;13.08;84.20;99536.63;1702361;82;21165;-43
2021/05/08 03:30:48;;;;;;;3.95;3.37;;;;;;;13.08;84.21;99520.10;1689820;84;21165;-44
2021/05/08 03:33:16;;;;;;;3.98;3.35;;;;;;;13.08;84.25;99513.41;1694030;84;21184;-44
2021/05/08 03:35:44;;;;;;;3.95;3.55;;;;;;;13.08;84.26;99505.84;1699870;83;21192;-45
2021/05/08 03:38:12;;;;;;;4.92;3.58;;;;;;;13.07;84.21;99517.55;1686285;83;21156;-44
2021/05/08 03:40:40;;;;;;;5.33;3.02;;;;;;;13.05;84.21;99527.02;1716827;82;21233;-42
2021/05/08 03:43:07;;;;;;;4.95;3.62;;;;;;;13.03;84.24;99522.78;1698311;83;21153;-43
2021/05/08 03:45:36;;;;;;;5.08;3.98;;;;;;;13.01;84.34;99511.38;1694871;83;21438;-42
2021/05/08 03:48:05;;;;;;;4.70;3.70;;;;;;;12.88;84.40;99508.39;1697016;84;21146;-50
2021/05/08 03:50:33;;;;;;;4.92;2.77;;;;;;;12.75;84.58;99505.88;1672371;84;21177;-45
2021/05/08 03:53:01;;;;;;;5.00;3.45;;;;;;;12.67;84.93;99514.16;1693978;84;21173;-47
2021/05/08 03:55:28;;;;;;;4.67;4.08;;;;;;;12.62;85.24;99508.34;1690108;84;21188;-45
2021/05/08 03:57:56;;;;;;;6.53;3.67;;;;;;;12.62;85.49;99514.53;1700382;83;21532;-45
2021/05/08 04:00:24;;;;;;;3.60;3.15;;;;;;;12.65;85.66;99514.77;1694550;83;21209;-46
2021/05/08 04:02:52;;;;;;;3.90;3.42;;;;;;;12.65;85.68;99518.32;1677483;84;21657;-44
2021/05/08 04:05:20;;;;;;;5.03;3.50;;;;;;;12.62;85.76;99530.58;1683451;84;21239;-44
2021/05/08 04:07:49;;;;;;;4.05;3.65;;;;;;;12.60;85.81;99531.68;1690140;83;21149;-45
2021/05/08 04:10:17;;;;;;;3.50;2.80;;;;;;;12.59;85.89;99533.52;1693409;84;21626;-49
2021/05/08 04:12:45;;;;;;;3.55;3.15;;;;;;;12.64;85.97;99542.50;1712284;82;21564;-49
2021/05/08 04:15:13;;;;;;;3.17;2.85;;;;;;;12.66;85.99;99544.08;1695270;83;21129;-47
2021/05/08 04:17:40;;;;;;;4.50;3.30;;;;;;;12.70;86.00;99545.54;1700277;83;21184;-48
2021/05/08 04:20:09;;;;;;;4.12;3.33;;;;;;;12.75;85.97;99548.69;1699339;83;21220;-48
2021/05/08 04:22:37;;;;;;;4.37;3.47;;;;;;;12.80;85.95;99542.08;1696930;83;21212;-49
2021/05/08 04:25:05;;;;;;;5.35;3.45;;;;;;;12.82;85.93;99540.14;1689724;83;21141;-49
2021/05/08 04:27:33;;;;;;;3.58;3.22;;;;;;;12.85;85.85;99535.87;1692473;84;21332;-48
2021/05/08 04:30:01;;;;;;;4.08;2.92;;;;;;;12.86;85.81;99543.78;1697020;83;21347;-47
2021/05/08 04:32:29;;;;;;;3.90;2.45;;;;;;;12.84;85.66;99539.03;1686843;84;21176;-46
2021/05/08 04:34:57;;;;;;;3.45;3.15;;;;;;;12.82;85.65;99538.30;1698812;82;21633;-51
2021/05/08 04:37:24;;;;;;;8.48;3.33;;;;;;;12.82;85.65;99529.44;1707557;82;21161;-47
2021/05/08 04:39:55;;;;;;;3.77;2.98;;;;;;;12.81;85.75;99539.79;1729188;81;21727;-46
2021/05/08 04:42:23;;;;;;;5.30;3.62;;;;;;;12.79;85.90;99533.22;1718455;81;21144;-48
2021/05/08 04:44:52;;;;;;;3.55;2.67;;;;;;;12.80;86.03;99542.08;1716662;81;21150;-51
2021/05/08 04:47:21;;;;;;;3.80;3.02;;;;;;;12.80;86.18;99566.16;1726883;81;21145;-47
2021/05/08 04:49:51;;;;;;;5.67;3.62;;;;;;;12.85;86.28;99569.31;1740356;81;21181;-48
2021/05/08 04:52:18;;;;;;;5.03;2.87;;;;;;;12.90;86.37;99579.14;1734891;81;21671;-47
2021/05/08 04:54:46;;;;;;;4.42;3.37;;;;;;;12.92;86.37;99587.41;1722236;81;21210;-49
2021/05/08 04:57:14;;;;;;;5.33;3.05;;;;;;;12.96;86.29;99585.34;1734917;81;21188;-47
2021/05/08 04:59:42;;;;;;;3.67;2.87;;;;;;;12.96;86.19;99592.03;1718145;81;21164;-49
2021/05/08 05:02:09;;;;;;;3.80;3.35;;;;;;;12.97;86.06;99583.86;1683473;84;21185;-47
2021/05/08 05:04:37;;;;;;;4.50;3.37;;;;;;;13.00;85.96;99588.11;1678488;83;21197;-56
2021/05/08 05:07:06;;;;;;;5.80;3.52;;;;;;;13.03;85.87;99581.66;1706907;82;21153;-47
2021/05/08 05:09:34;;;;;;;3.72;3.33;;;;;;;13.06;85.76;99584.09;1700520;82;21586;-46
2021/05/08 05:12:03;;;;;;;5.70;4.72;;;;;;;13.06;85.61;99592.97;1694493;83;21588;-41
2021/05/08 05:14:30;;;;;;;6.05;3.75;;;;;;;13.06;85.56;99588.95;1690100;83;21443;-40
2021/05/08 05:16:58;;;;;;;4.10;3.65;;;;;;;13.05;85.52;99595.27;1697362;83;21596;-40
2021/05/08 05:19:27;;;;;;;5.33;3.75;;;;;;;13.06;85.46;99584.94;1696062;83;21193;-43
2021/05/08 05:21:54;;;;;;;4.62;3.72;;;;;;;13.08;85.42;99581.66;1696351;84;21180;-48
2021/05/08 05:24:22;;;;;;;6.08;3.70;;;;;;;13.09;85.34;99585.17;1693157;83;21575;-42
2021/05/08 05:26:50;;;;;;;4.67;3.75;;;;;;;13.08;85.16;99590.16;1695085;83;21613;-45
2021/05/08 05:29:18;;;;;;;5.25;3.62;;;;;;;13.05;85.06;99587.23;1693577;83;21675;-43
2021/05/08 05:31:47;;;;;;;5.80;5.20;;;;;;;13.05;85.00;99600.62;1692427;84;21169;-42
2021/05/08 05:34:14;;;;;;;5.17;4.00;;;;;;;13.05;85.04;99596.61;1698651;83;21795;-43
2021/05/08 05:36:43;;;;;;;3.95;3.58;;;;;;;13.07;85.15;99591.14;1732587;81;21149;-42
2021/05/08 05:39:10;;;;;;;4.00;3.25;;;;;;;13.08;85.20;99601.73;1727601;81;21157;-42
2021/05/08 05:41:38;;;;;;;3.70;3.08;;;;;;;13.08;85.24;99608.42;1729010;81;21565;-42
2021/05/08 05:44:06;;;;;;;4.78;3.65;;;;;;;13.09;85.18;99594.55;1688548;83;21585;-43
2021/05/08 05:46:35;;;;;;;4.60;3.87;;;;;;;13.10;85.17;99589.54;1734393;80;21593;-43
2021/05/08 05:49:03;;;;;;;4.35;3.95;;;;;;;13.06;85.20;99601.00;1744204;81;21208;-46
2021/05/08 05:51:30;;;;;;;6.20;4.25;;;;;;;13.05;85.21;99597.10;1688226;83;21607;-42
2021/05/08 05:53:58;;;;;;;4.92;4.42;;;;;;;13.02;85.30;99600.03;1694090;84;21252;-42
2021/05/08 05:56:26;;;;;;;5.20;4.40;;;;;;;12.98;85.28;99602.97;1674360;84;21618;-42
2021/05/08 05:58:54;;;;;;;5.95;4.72;;;;;;;12.96;85.32;99595.55;1733727;81;21169;-42
2021/05/08 06:01:22;;;;;;;7.50;6.72;;;;;;;12.96;85.23;99590.20;1729065;81;21631;-42
2021/05/08 06:03:51;;;;;;;6.45;4.70;;;;;;;12.95;85.17;99594.33;1732893;81;21141;-42
2021/05/08 06:06:19;;;;;;;4.65;4.08;;;;;;;12.94;85.13;99606.02;1730085;81;21142;-45
2021/05/08 06:08:47;;;;;;;6.05;4.35;;;;;;;12.95;85.08;99605.03;1740530;81;21178;-43
2021/05/08 06:11:15;;;;;;;5.22;4.72;;;;;;;12.95;84.97;99607.70;1680723;83;21138;-42
2021/05/08 06:13:43;;;;;;;4.17;3.75;;;;;;;12.93;84.75;99602.50;1701419;83;21339;-44
2021/05/08 06:16:10;;;;;;;5.20;3.92;;;;;;;12.87;84.67;99607.00;1682301;83;21176;-45
2021/05/08 06:18:40;;;;;;;6.05;3.75;;;;;;;12.82;84.67;99608.36;1705925;82;21142;-46
2021/05/08 06:21:08;;;;;;;4.58;4.05;;;;;;;12.78;84.89;99610.45;1683958;83;21225;-43
2021/05/08 06:23:37;;;;;;;6.05;4.08;;;;;;;12.67;84.65;99609.95;1726153;81;21165;-44
2021/05/08 06:26:04;;;;;;;4.37;3.55;;;;;;;12.60;84.82;99617.26;1726367;81;21178;-45
2021/05/08 06:28:33;;;;;;;6.05;4.12;;;;;;;12.53;84.97;99624.45;1700879;81;21177;-43
2021/05/08 06:31:00;;;;;;;4.65;3.58;;;;;;;12.51;85.03;99625.05;1736804;81;21193;-45
2021/05/08 06:33:29;;;;;;;5.67;2.92;;;;;;;12.50;85.17;99619.84;1736020;81;21348;-44
2021/05/08 06:35:57;;;;;;;4.45;3.02;;;;;;;12.45;84.88;99620.70;1734193;81;21162;-45
2021/05/08 06:38:25;;;;;;;4.72;2.77;;;;;;;12.38;84.88;99624.84;1722356;81;21213;-43
2021/05/08 06:40:53;;;;;;;3.52;2.40;;;;;;;12.32;84.59;99635.50;1735042;82;21161;-43
2021/05/08 06:43:21;;;;;;;2.90;2.58;;;;;;;12.21;84.32;99632.34;1702870;82;21165;-43
2021/05/08 06:45:49;;;;;;;5.87;2.50;;;;;;;12.16;84.37;99635.02;1695796;83;21182;-43
2021/05/08 06:48:18;;;;;;;4.00;2.90;;;;;;;12.15;84.63;99638.19;1706761;82;21657;-44
2021/05/08 06:50:47;;;;;;;3.47;2.80;;;;;;;12.13;84.87;99638.78;1684361;83;21182;-44
2021/05/08 06:53:15;;;;;;;2.37;2.17;;;;;;;12.11;85.22;99644.23;1672259;84;21594;-44
2021/05/08 06:55:42;;;;;;;2.42;2.00;;;;;;;12.12;85.54;99650.45;1681991;83;21693;-44
2021/05/08 06:58:10;;;;;;;2.50;2.05;;;;;;;12.11;85.55;99652.75;1682059;84;21194;-44
2021/05/08 07:00:38;;;;;;;2.22;1.67;;;;;;;12.12;85.45;99659.81;1686616;83;21637;-43
2021/05/08 07:03:05;;;;;;;4.85;2.12;;;;;;;12.15;85.46;99667.59;1683094;83;21209;-44
2021/05/08 07:05:33;;;;;;;2.37;1.90;;;;;;;12.18;85.47;99667.83;1725677;81;21169;-45
2021/05/08 07:08:03;;;;;;;4.20;2.60;;;;;;;12.18;85.14;99672.69;1735792;81;21288;-44
2021/05/08 07:10:31;;;;;;;4.78;3.70;;;;;;;12.17;84.97;99676.80;1735129;81;21192;-41
2021/05/08 07:12:59;;;;;;;3.83;2.92;;;;;;;12.17;84.93;99685.70;1732557;81;21482;-43
2021/05/08 07:15:26;;;;;;;4.72;2.90;;;;;;;12.12;84.68;99687.38;1730051;81;21157;-42
2021/05/08 07:18:04;;;;;;;3.25;2.30;;;;;;;12.11;84.62;99692.83;1686299;83;21212;-42
2021/05/08 07:20:32;;;;;;;2.52;2.33;;;;;;;12.05;84.43;99688.82;1698908;83;21665;-43
2021/05/08 07:23:00;;;;;;;3.12;2.40;;;;;;;12.01;84.31;99706.53;1693563;83;21184;-41
2021/05/08 07:25:28;;;;;;;3.17;2.67;;;;;;;11.99;84.32;99708.47;1692961;83;21551;-43
2021/05/08 07:28:21;;;;;;;3.70;2.67;;;;;;;11.96;84.19;99708.22;1685012;83;21188;-41
2021/05/08 07:30:51;;;;;;;2.85;1.98;;;;;;;11.94;84.01;99714.16;1685080;83;21192;-42
2021/05/08 07:33:19;;;;;;;2.85;2.37;;;;;;;11.91;83.79;99718.41;1721107;81;21554;-41
2021/05/08 07:35:47;;;;;;;4.30;2.62;;;;;;;11.86;83.82;99726.77;1734689;81;21170;-42
2021/05/08 07:38:15;;;;;;;3.72;3.30;;;;;;;11.86;83.99;99728.09;1646570;85;21261;-42
2021/05/08 07:40:43;;;;;;;3.70;3.33;;;;;;;11.87;84.05;99733.83;1697559;83;21601;-40
2021/05/08 07:43:11;;;;;;;3.08;2.50;;;;;;;11.86;84.18;99736.56;1690568;84;21209;-39
2021/05/08 07:45:39;;;;;;;3.00;2.22;;;;;;;11.82;84.30;99739.97;1685064;83;21165;-40
2021/05/08 07:48:07;;;;;;;3.50;3.00;;;;;;;11.80;84.36;99749.06;1687190;84;21173;-41
2021/05/08 07:50:35;;;;;;;5.55;2.62;;;;;;;11.74;84.29;99755.69;1682120;83;21188;-41
2021/05/08 07:53:03;;;;;;;3.83;2.37;;;;;;;11.69;84.40;99754.73;1723970;81;21180;-41
2021/05/08 07:55:31;;;;;;;2.98;2.55;;;;;;;11.64;84.71;99758.68;1716176;82;21178;-40
2021/05/08 07:57:59;;;;;;;2.35;2.12;;;;;;;11.59;84.94;99762.17;1713215;81;21233;-40
2021/05/08 08:00:28;;;;;;;2.37;2.15;;;;;;;11.55;85.03;99762.05;1724767;81;21173;-43
2021/05/08 08:02:57;;;;;;;2.85;2.42;;;;;;;11.49;84.90;99778.05;1731322;81;21168;-41
2021/05/08 08:05:25;;;;;;;2.90;2.15;;;;;;;11.43;85.00;99776.66;1687989;83;21629;-40
2021/05/08 08:07:52;;;;;;;3.22;1.65;;;;;;;11.38;84.78;99779.30;1678303;83;21180;-41
2021/05/08 08:10:20;;;;;;;3.17;1.80;;;;;;;11.31;84.55;99785.55;1722974;81;21169;-45
2021/05/08 08:12:50;;;;;;;2.10;1.77;;;;;;;11.25;84.17;99779.34;1710193;81;21109;-43
2021/05/08 08:15:19;;;;;;;2.45;1.80;;;;;;;11.17;84.15;99789.72;1704873;81;21150;-43
2021/05/08 08:17:48;;;;;;;2.05;1.40;;;;;;;11.09;84.16;99794.27;1713911;82;21616;-44
2021/05/08 08:20:16;;;;;;;2.65;1.80;;;;;;;10.97;83.73;99805.33;1711392;81;21159;-43
2021/05/08 08:22:45;;;;;;;3.27;1.92;;;;;;;10.74;83.03;99801.61;1718329;82;21125;-40
2021/05/08 08:25:13;;;;;;;4.72;1.85;;;;;;;10.51;82.78;99801.03;1724471;81;21201;-43
2021/05/08 08:27:41;;;;;;;3.62;2.45;;;;;;;10.33;82.97;99806.66;1725077;81;21208;-45
2021/05/08 08:30:11;;;;;;;3.20;2.30;;;;;;;10.18;83.06;99819.17;1724368;81;21686;-40
2021/05/08 08:32:40;;;;;;;2.40;2.17;;;;;;;10.06;83.14;99827.98;1721540;81;21620;-41
2021/05/08 08:35:09;;;;;;;5.28;2.30;;;;;;;9.97;83.22;99839.23;1732715;81;21586;-42
2021/05/08 08:37:37;;;;;;;4.83;2.27;;;;;;;9.89;83.38;99839.73;1672051;84;21157;-40
2021/05/08 08:40:06;;;;;;;3.42;2.22;;;;;;;9.83;83.05;99853.47;1687974;83;21169;-42
2021/05/08 08:42:34;;;;;;;3.42;2.60;;;;;;;9.78;83.27;99846.70;1685265;84;21149;-43
2021/05/08 08:45:02;;;;;;;4.65;2.87;;;;;;;9.75;83.50;99855.30;1696344;83;21165;-40
2021/05/08 08:47:30;;;;;;;2.02;1.82;;;;;;;9.79;83.93;99866.59;1693970;83;21681;-41
2021/05/08 08:50:12;;;;;;;3.33;2.60;;;;;;;9.78;84.04;99864.02;1679549;84;21664;-39
2021/05/08 08:52:40;;;;;;;3.00;2.47;;;;;;;9.76;83.94;99873.45;1696934;83;21625;-40
2021/05/08 08:55:09;;;;;;;4.42;2.12;;;;;;;9.68;83.77;99874.44;1687160;83;21698;-40
2021/05/08 08:57:40;;;;;;;2.62;1.95;;;;;;;9.63;83.67;99877.38;1728953;81;21178;-45
2021/05/08 09:00:12;;;;;;;2.30;1.82;;;;;;;9.60;83.47;99880.25;1715431;82;21182;-44
2021/05/08 09:02:46;;;;;;;3.35;2.00;;;;;;;9.57;83.33;99879.09;1711567;82;21166;-41
2021/05/08 09:05:19;;;;;;;3.60;1.57;;;;;;;9.57;83.12;99892.88;1704656;82;21181;-41
2021/05/08 09:07:48;;;;;;;2.65;1.70;;;;;;;9.56;83.14;99898.69;1696576;83;21156;-42
2021/05/08 09:10:28;;;;;;;2.05;1.55;;;;;;;9.56;83.38;99883.20;1680825;83;21186;-40
2021/05/08 09:13:01;;;;;;;2.20;1.20;;;;;;;9.59;83.54;99896.30;1674788;83;21728;-41
2021/05/08 09:15:35;;;;;;;2.92;1.77;;;;;;;9.61;83.39;99897.92;1682617;83;21193;-41
2021/05/08 09:18:07;;;;;;;3.33;1.70;;;;;;;9.59;83.45;99899.81;1686354;83;21303;-42
2021/05/08 09:20:47;;;;;;;1.77;1.27;;;;;;;9.61;83.41;99906.39;1689639;83;21180;-42
2021/05/08 09:23:38;;;;;;;1.60;1.30;;;;;;;9.62;82.67;99898.28;1688007;84;21180;-42
2021/05/08 09:26:07;;;;;;;1.50;1.40;;;;;;;9.61;82.50;99903.24;1693649;84;21161;-43
2021/05/08 09:28:38;;;;;;;1.83;1.30;;;;;;;9.60;82.10;99902.87;1695840;82;21167;-43
2021/05/08 09:31:07;;;;;;;1.50;1.32;;;;;;;9.61;82.17;99898.40;1685099;83;21181;-44
2021/05/08 09:33:35;;;;;;;2.02;1.30;;;;;;;9.63;82.27;99902.67;1694235;82;21172;-42
2021/05/08 09:36:09;;;;;;;1.75;1.30;;;;;;;9.66;82.36;99903.80;1704564;83;21192;-41
2021/05/08 09:38:40;;;;;;;1.62;1.35;;;;;;;9.67;82.28;99906.83;1715319;81;21213;-43
2021/05/08 09:41:10;;;;;;;;;;;;;;;9.72;82.42;99912.72;1735852;81;21181;-47
2021/05/08 09:43:38;;;;;;;3.33;1.53;;;;;;;9.72;81.99;99914.05;1729788;81;20452;-42
2021/05/08 09:46:06;;;;;;;1.40;1.00;;;;;;;9.74;82.15;99921.47;1730646;81;21150;-40
2021/05/08 09:48:36;;;;;;;2.33;1.52;;;;;;;9.75;82.56;99921.86;1726841;81;21669;-39
2021/05/08 09:54:13;;;;;;;1.45;1.05;;;;;;;9.83;83.02;99927.18;1763493;79;23112;-41
2021/05/08 09:56:46;;;;;;;2.98;1.27;;;;;;;9.79;82.80;99926.98;1733646;82;21141;-40
2021/05/08 10:02:32;;;;;;;1.95;1.10;;;;;;;9.59;80.08;99928.25;1875972;74;27922;-45
2021/05/08 10:05:04;;;;;;;;;;;;;;;9.44;79.36;99932.24;1866386;75;21117;-41
2021/05/08 10:07:32;;;;;;;3.10;0.70;;;;;;;9.39;78.14;99928.16;1841313;75;20154;-40
2021/05/08 10:10:01;;;;;;;1.43;1.07;;;;;;;9.33;78.19;99949.84;1845071;75;21140;-41
2021/05/08 10:12:29;;;;;;;0.98;0.80;;;;;;;9.26;77.27;99942.22;1814502;77;21144;-43
2021/05/08 10:14:58;;;;;;;1.15;0.95;;;;;;;9.22;77.24;99951.81;1793192;78;21171;-41
2021/05/08 10:17:28;;;;;;;1.27;0.95;;;;;;;9.24;77.37;99950.77;1807644;78;21313;-44
2021/05/08 10:20:11;;;;;;;1.98;0.95;;;;;;;9.29;77.87;99961.13;1827068;76;21183;-41
2021/05/08 10:22:49;;;;;;;3.08;0.90;;;;;;;9.34;78.07;99965.70;1746974;79;21122;-40
2021/05/08 10:25:17;;;;;;;1.10;0.82;;;;;;;9.41;78.76;99964.38;1798984;79;21149;-42
2021/05/08 10:27:45;;;;;;;1.00;0.70;;;;;;;9.52;78.73;99969.91;1767904;79;21158;-47
2021/05/08 10:30:16;;;;;;;0.95;0.82;;;;;;;9.63;78.42;99967.89;1794646;78;21163;-41
2021/05/08 10:32:45;;;;;;;1.45;0.88;;;;;;;9.73;78.40;99966.84;1783794;79;21157;-41
2021/05/08 10:35:14;;;;;;;2.95;1.67;;;;;;;9.84;77.97;99968.83;1762949;79;21573;-41
2021/05/08 10:38:23;;;;;;;1.77;1.00;;;;;;;9.95;77.75;99969.86;1782067;79;21166;-42
2021/05/08 10:41:03;;;;;;;4.85;1.15;;;;;;;10.06;77.36;99962.50;1780489;78;21613;-41
2021/05/08 10:46:31;;;;;;;2.67;0.93;;;;;;;10.24;74.56;99972.92;1799333;78;22921;-41
2021/05/08 10:49:14;;;;;;;2.42;1.00;;;;;;;10.18;73.35;99981.70;1751282;79;21129;-40
2021/05/08 10:51:57;;;;;;;1.77;1.07;;;;;;;10.17;73.46;99981.30;1746703;81;21124;-40
2021/05/08 10:54:43;;;;;;;1.57;0.95;;;;;;;10.16;72.86;99981.42;1720667;81;21177;-40
2021/05/08 10:57:25;;;;;;;1.57;0.95;;;;;;;10.10;72.58;99991.97;1753595;81;21421;-40
2021/05/08 11:00:08;;;;;;;1.22;1.02;;;;;;;10.03;72.37;99986.69;1738299;81;21573;-41
2021/05/08 11:02:47;;;;;;;1.85;1.20;;;;;;;10.07;73.37;99983.33;1743650;81;21149;-46
2021/05/08 11:05:30;;;;;;;1.50;1.00;;;;;;;10.18;73.37;99991.02;1713568;82;21149;-41
2021/05/08 11:07:58;;;;;;;0.88;0.72;;;;;;;10.30;73.30;99985.87;1717834;81;21149;-41
2021/05/08 11:10:37;;;;;;;1.20;0.80;;;;;;;10.39;71.61;99988.80;1715336;81;21622;-40
2021/05/08 11:13:09;;;;;;;1.10;0.85;;;;;;;10.43;71.03;99988.11;1728878;82;21442;-42
2021/05/08 11:15:58;;;;;;;2.85;1.00;;;;;;;10.39;70.30;99987.95;1739596;81;21166;-44
2021/05/08 11:18:42;;;;;;;2.02;1.00;;;;;;;10.35;71.17;99992.61;1726695;82;21106;-44
2021/05/08 11:21:19;;;;;;;0.90;0.80;;;;;;;10.33;70.81;99999.88;1726747;81;21128;-42
2021/05/08 11:24:01;;;;;;;1.55;0.90;;;;;;;10.31;71.07;100016.44;1740144;81;21738;-43
2021/05/08 11:26:35;;;;;;;0.95;0.78;;;;;;;10.26;71.97;100009.19;1708974;83;21158;-44
2021/05/08 11:29:19;;;;;;;0.93;0.53;;;;;;;10.11;75.01;100031.48;1714325;82;21146;-44
2021/05/08 11:31:53;;;;;;;0.72;0.50;;;;;;;9.93;75.84;100034.84;1714137;83;21105;-45
2021/05/08 11:34:34;;;;;;;0.82;0.60;;;;;;;9.82;76.19;100039.48;1719428;82;21562;-42
2021/05/08 11:37:08;;;;;;;1.15;0.65;;;;;;;9.74;77.11;100041.28;1712111;83;21154;-43
2021/05/08 11:39:43;;;;;;;1.15;0.93;;;;;;;9.71;77.78;100051.28;1712481;82;21150;-44
2021/05/08 11:42:17;;;;;;;2.47;0.85;;;;;;;9.67;78.40;100053.74;1715382;82;21124;-43
2021/05/08 11:44:46;;;;;;;1.25;1.10;;;;;;;9.60;78.50;100055.95;1715340;82;21193;-44
2021/05/08 11:47:32;;;;;;;2.40;1.10;;;;;;;9.57;78.50;100070.75;1694280;83;21654;-44
2021/05/08 11:50:03;;;;;;;1.15;0.82;;;;;;;9.55;79.11;100074.00;1697134;83;21161;-42
2021/05/08 11:52:44;;;;;;;1.52;0.80;;;;;;;9.50;78.76;100088.91;1698120;83;21142;-43
2021/05/08 11:55:22;;;;;;;0.72;0.65;;;;;;;9.47;78.81;100090.89;1698806;83;21149;-43
2021/05/08 11:57:57;;;;;;;1.15;0.65;;;;;;;9.37;77.03;100099.04;1684861;84;21259;-44